Time;durP1;ratioP1;P1;durP2;ratioP2;P2;SDS_P1;SDS_P2;PMS_P1;PMS_P2;Temp;Humidity;BMP_temperature;BMP_pressure;BME280_temperature;BME280_humidity;BME280_pressure;Samples;Min_cycle;Max_cycle;Signal;HPM_P1;HPM_P2
2022/08/14 00:01:04;;;;;;;5.53;2.03;;;18.80;61.50;;;18.26;48.92;96993.56;4993662;28;20409;-75
2022/08/14 00:03:31;;;;;;;3.13;2.30;;;18.80;62.10;;;18.37;48.70;96984.91;4993031;28;20435;-74
2022/08/14 00:06:00;;;;;;;3.78;2.45;;;18.80;62.20;;;18.23;49.06;96986.13;4993570;28;20409;-75
2022/08/14 00:08:27;;;;;;;4.00;2.30;;;18.80;62.20;;;18.33;48.68;96983.97;4993408;28;20410;-75
2022/08/14 00:10:53;;;;;;;6.75;2.30;;;18.80;62.10;;;18.11;49.67;96968.75;4992099;28;20422;-75
2022/08/14 00:13:22;;;;;;;3.58;2.60;;;18.70;62.70;;;18.05;49.48;96967.28;4993041;28;20495;-75
2022/08/14 00:15:50;;;;;;;4.40;2.67;;;18.70;62.90;;;17.90;50.25;96964.22;4993233;28;20406;-75
2022/08/14 00:18:19;;;;;;;3.60;2.30;;;18.60;63.30;;;18.06;50.09;96965.41;4993218;28;20415;-74
2022/08/14 00:20:46;;;;;;;6.68;3.05;;;18.50;63.80;;;17.98;50.32;96963.47;4993277;28;20888;-75
2022/08/14 00:23:14;;;;;;;9.95;2.97;;;18.50;63.70;;;17.79;50.76;96964.50;4992881;28;20418;-75
2022/08/14 00:25:41;;;;;;;4.85;3.00;;;18.40;64.30;;;17.52;52.04;96959.28;4993116;28;20403;-75
2022/08/14 00:28:10;;;;;;;4.53;3.22;;;18.20;65.10;;;17.57;51.92;96951.13;4993044;28;20402;-75
2022/08/14 00:30:37;;;;;;;6.57;3.60;;;18.10;65.50;;;17.49;52.54;96951.88;4992940;28;20418;-75
2022/08/14 00:33:04;;;;;;;5.47;3.35;;;18.00;66.20;;;17.67;51.42;96944.75;4992739;28;20772;-75
2022/08/14 00:35:31;;;;;;;4.55;3.35;;;18.20;65.60;;;17.83;51.18;96937.09;4992983;28;20410;-75
2022/08/14 00:37:57;;;;;;;5.40;3.20;;;18.30;65.20;;;17.64;52.00;96932.78;4992922;28;20425;-75
2022/08/14 00:40:24;;;;;;;6.93;3.28;;;18.30;65.30;;;17.33;53.09;96934.59;4992881;28;20697;-75
2022/08/14 00:42:50;;;;;;;5.75;3.25;;;18.00;66.30;;;17.28;52.89;96930.19;4992395;28;20904;-75
2022/08/14 00:45:17;;;;;;;6.82;3.40;;;17.90;66.50;;;17.15;53.79;96927.53;4992661;28;20415;-75
2022/08/14 00:47:46;;;;;;;5.15;2.97;;;17.80;67.50;;;17.40;52.86;96935.75;4992769;28;20402;-75
2022/08/14 00:50:19;;;;;;;4.95;3.17;;;17.90;67.20;;;17.33;53.01;96926.59;4992573;28;20548;-75
2022/08/14 00:52:46;;;;;;;6.33;3.10;;;18.00;66.90;;;17.10;53.28;96933.81;4992525;28;20484;-75
2022/08/14 00:55:13;;;;;;;6.03;2.83;;;17.80;67.00;;;16.90;53.80;96934.28;4992595;28;20902;-74
2022/08/14 00:57:40;;;;;;;4.97;2.70;;;17.60;67.40;;;16.86;54.47;96925.28;4992577;28;20402;-75
2022/08/14 01:00:13;;;;;;;5.93;2.85;;;17.50;68.10;;;16.97;54.70;96923.97;4992514;28;20405;-75
2022/08/14 01:02:42;;;;;;;4.80;2.85;;;17.40;68.80;;;17.26;53.29;96926.22;4992453;28;20765;-74
2022/08/14 01:05:22;;;;;;;5.25;2.70;;;17.70;67.80;;;17.04;54.24;96921.66;4992199;28;20562;-75
2022/08/14 01:07:53;;;;;;;5.53;2.70;;;17.70;68.10;;;17.15;53.52;96919.53;4992322;28;20899;-75
2022/08/14 01:10:20;;;;;;;6.18;2.50;;;17.70;67.70;;;17.04;53.15;96910.97;4992238;28;20407;-75
2022/08/14 01:12:48;;;;;;;3.42;2.47;;;17.60;67.50;;;17.05;53.45;96912.56;4991926;28;20410;-75
2022/08/14 01:15:16;;;;;;;4.15;2.38;;;17.60;67.50;;;17.05;54.14;96922.47;4992116;28;20415;-75
2022/08/14 01:23:14;;;;;;;4.47;2.50;;;17.60;68.00;;;16.91;54.60;96917.16;4991319;28;20397;-74
2022/08/14 01:25:40;;;;;;;5.55;2.72;;;17.60;68.60;;;16.90;54.58;96919.06;4991897;28;20513;-74
2022/08/14 01:28:07;;;;;;;3.30;2.42;;;17.50;68.90;;;17.11;53.52;96918.56;4991972;28;20406;-73
2022/08/14 01:30:37;;;;;;;3.47;2.53;;;17.60;68.30;;;17.01;54.10;96924.94;4991714;28;20426;-74
2022/08/14 01:33:03;;;;;;;5.25;2.50;;;17.50;68.30;;;16.99;53.77;96921.75;4991545;28;21003;-74
2022/08/14 01:35:29;;;;;;;3.20;2.47;;;17.50;68.20;;;16.98;53.33;96909.50;4991740;28;20534;-74
2022/08/14 01:37:56;;;;;;;4.40;2.30;;;17.60;67.60;;;17.07;52.69;96912.22;4974318;28;20422;-74
2022/08/14 01:40:23;;;;;;;4.30;2.63;;;17.70;67.20;;;17.13;53.57;96905.69;4991216;28;20496;-74
2022/08/14 01:42:49;;;;;;;5.03;2.28;;;17.70;67.80;;;17.12;53.88;96906.78;4991209;28;20983;-74
2022/08/14 01:45:16;;;;;;;3.90;2.40;;;17.70;68.20;;;17.17;53.26;96907.44;4990349;28;20422;-74
2022/08/14 01:47:42;;;;;;;6.18;2.72;;;17.70;67.70;;;17.27;52.97;96911.75;4991738;28;20410;-74
2022/08/14 01:50:09;;;;;;;3.33;2.20;;;17.70;67.70;;;17.07;53.59;96905.00;4991589;28;20433;-74
2022/08/14 01:52:37;;;;;;;4.55;2.60;;;17.70;67.90;;;16.88;54.28;96899.84;4991530;28;20430;-74
2022/08/14 01:55:07;;;;;;;4.30;2.55;;;17.50;68.30;;;16.95;54.09;96894.06;4991169;28;20411;-74
2022/08/14 01:57:36;;;;;;;3.10;2.60;;;17.50;68.70;;;16.76;54.99;96890.78;4991591;28;20406;-74
2022/08/14 02:00:05;;;;;;;3.60;2.50;;;17.30;69.30;;;16.60;55.57;96882.28;4991319;28;20445;-74
2022/08/14 02:02:31;;;;;;;7.15;2.58;;;17.20;69.90;;;16.67;55.13;96887.25;4991460;28;20398;-74
2022/08/14 02:04:58;;;;;;;4.82;2.80;;;17.20;70.10;;;16.61;55.74;96873.97;4991049;28;20461;-74
2022/08/14 02:07:24;;;;;;;7.57;2.78;;;17.20;70.30;;;16.66;55.22;96867.75;4990158;28;20831;-74
2022/08/14 02:09:50;;;;;;;4.18;2.53;;;17.20;70.10;;;16.54;56.04;96870.91;4991266;28;20497;-74
2022/08/14 02:12:16;;;;;;;3.28;2.60;;;17.10;70.50;;;16.64;55.58;96870.72;4991255;28;20418;-74
2022/08/14 02:14:43;;;;;;;3.33;2.40;;;17.20;70.40;;;16.58;55.79;96877.25;4990697;28;20442;-74
2022/08/14 02:17:12;;;;;;;3.97;2.53;;;17.20;70.80;;;16.61;55.92;96884.66;4991222;28;20461;-74
2022/08/14 02:19:38;;;;;;;4.88;2.60;;;17.10;71.00;;;16.60;55.68;96877.78;4990994;28;20425;-74
2022/08/14 02:22:05;;;;;;;4.07;2.67;;;17.10;70.90;;;16.52;56.14;96877.66;4991210;28;20756;-74
2022/08/14 02:24:31;;;;;;;3.58;2.55;;;17.10;70.90;;;16.54;56.22;96881.59;4990643;28;20948;-74
2022/08/14 02:26:59;;;;;;;3.55;2.50;;;17.10;71.10;;;16.56;56.02;96879.41;4991118;28;20485;-74
2022/08/14 02:29:29;;;;;;;5.18;2.80;;;17.10;71.10;;;16.50;56.27;96872.59;4990936;28;20385;-74
2022/08/14 02:31:58;;;;;;;8.32;2.80;;;17.10;72.10;;;16.42;56.53;96865.31;4991091;28;20446;-74
2022/08/14 02:34:30;;;;;;;4.13;2.78;;;17.00;71.50;;;16.36;56.65;96863.84;4990740;28;20493;-74
2022/08/14 02:37:01;;;;;;;3.72;2.78;;;17.00;71.60;;;16.38;56.90;96861.66;4991045;28;20405;-74
2022/08/14 02:39:28;;;;;;;5.55;2.67;;;17.00;71.70;;;16.47;56.35;96861.72;4990925;28;20406;-74
2022/08/14 02:41:54;;;;;;;3.35;2.63;;;17.00;71.40;;;16.41;56.80;96854.91;4991021;28;20403;-74
2022/08/14 02:44:21;;;;;;;4.57;2.80;;;17.00;71.70;;;16.19;57.31;96859.13;4990398;28;21051;-74
2022/08/14 02:46:50;;;;;;;4.45;2.60;;;16.90;72.00;;;16.28;57.06;96856.53;4990799;28;20406;-74
2022/08/14 02:49:20;;;;;;;4.05;3.08;;;16.90;72.30;;;16.27;57.34;96845.06;4990842;28;20485;-74
2022/08/14 02:51:47;;;;;;;5.85;2.65;;;16.80;72.40;;;16.22;57.65;96841.72;4991312;28;20963;-74
2022/08/14 02:54:13;;;;;;;5.47;3.17;;;16.80;72.60;;;16.11;57.40;96838.47;4994384;28;20418;-74
2022/08/14 02:56:39;;;;;;;2.83;2.53;;;16.80;72.50;;;16.16;57.44;96842.91;4994799;28;20410;-74
2022/08/14 02:59:08;;;;;;;5.30;2.67;;;16.80;72.70;;;16.45;56.63;96832.66;4994678;28;20410;-74
2022/08/14 03:01:35;;;;;;;5.28;3.00;;;16.90;72.30;;;16.40;56.80;96826.63;4994849;28;20402;-74
2022/08/14 03:04:04;;;;;;;4.57;2.90;;;16.90;72.10;;;16.48;56.07;96815.22;4994144;28;20464;-74
2022/08/14 03:06:32;;;;;;;4.07;2.60;;;17.00;71.40;;;16.11;57.47;96816.31;4994636;28;20443;-74
2022/08/14 03:08:58;;;;;;;3.35;2.55;;;16.80;72.10;;;16.22;56.94;96818.47;4994507;28;20472;-74
2022/08/14 03:11:25;;;;;;;5.93;2.80;;;16.80;72.40;;;16.31;56.97;96813.22;4994453;28;20505;-74
2022/08/14 03:13:51;;;;;;;7.82;2.90;;;16.90;72.20;;;16.30;56.84;96810.84;4994006;28;20931;-74
2022/08/14 03:16:21;;;;;;;4.53;2.80;;;16.90;72.00;;;16.14;57.12;96815.72;4994494;28;20425;-74
2022/08/14 03:18:52;;;;;;;5.15;2.75;;;16.80;72.30;;;16.05;57.65;96807.63;4994211;28;20415;-74
2022/08/14 03:21:23;;;;;;;4.63;3.05;;;16.70;72.50;;;15.96;57.92;96806.75;4994495;28;20962;-74
2022/08/14 03:24:26;;;;;;;4.97;2.70;;;16.60;72.90;;;15.85;58.62;96805.41;4993807;28;20406;-74
2022/08/14 03:26:46;;;;;;;5.85;3.00;;;16.40;73.80;;;15.59;59.18;96802.44;4992221;28;20447;-74
2022/08/14 03:29:15;;;;;;;5.63;2.95;;;16.30;74.30;;;15.79;58.77;96799.34;4994115;28;20923;-73
2022/08/14 03:31:41;;;;;;;3.75;2.50;;;16.30;74.60;;;15.55;59.40;96793.47;4994077;28;20418;-74
2022/08/14 03:34:09;;;;;;;3.92;2.75;;;16.30;74.30;;;15.69;59.29;96794.25;4993677;28;20409;-74
2022/08/14 03:36:35;;;;;;;3.42;2.80;;;16.20;75.00;;;15.58;59.62;96782.19;4994262;28;20829;-74
2022/08/14 03:39:05;;;;;;;5.73;2.90;;;16.30;74.80;;;15.67;59.25;96787.59;4993979;28;21080;-74
2022/08/14 03:41:31;;;;;;;6.93;3.05;;;16.30;75.10;;;15.66;59.27;96792.16;4994048;28;20402;-74
2022/08/14 03:44:00;;;;;;;5.70;3.13;;;16.30;75.10;;;15.44;59.88;96794.69;4993184;28;20426;-74
2022/08/14 03:46:29;;;;;;;5.28;3.00;;;16.20;75.30;;;15.67;59.26;96792.94;4993921;28;20402;-74
2022/08/14 03:48:55;;;;;;;5.10;2.60;;;16.20;75.20;;;15.59;60.00;96782.97;4993733;28;20395;-74
2022/08/14 03:51:27;;;;;;;6.20;2.90;;;16.10;75.60;;;15.53;60.14;96787.63;4993934;28;20426;-74
2022/08/14 03:53:56;;;;;;;7.93;3.43;;;16.10;75.70;;;15.47;60.04;96789.56;4993005;28;20402;-74
2022/08/14 03:56:25;;;;;;;5.22;2.88;;;16.10;76.00;;;15.57;59.88;96785.94;4992560;28;20503;-74
2022/08/14 03:58:55;;;;;;;4.15;2.88;;;16.20;75.90;;;15.63;59.78;96786.63;4993566;28;20819;-74
2022/08/14 04:01:24;;;;;;;3.97;2.40;;;16.20;75.90;;;15.71;59.52;96783.28;4993670;28;20493;-74
2022/08/14 04:03:53;;;;;;;5.20;2.67;;;16.30;75.40;;;15.59;59.74;96785.63;4992706;28;20407;-74
2022/08/14 04:06:20;;;;;;;8.05;2.92;;;16.20;75.50;;;15.59;59.94;96788.31;4993573;28;20407;-74
2022/08/14 04:08:52;;;;;;;3.10;2.70;;;16.20;76.00;;;15.41;60.50;96790.75;4993449;28;20526;-74
2022/08/14 04:11:18;;;;;;;5.85;2.72;;;16.20;76.00;;;15.36;60.57;96784.72;4975958;28;20509;-74
2022/08/14 04:13:48;;;;;;;3.42;2.50;;;16.10;76.40;;;15.42;60.39;96776.31;4992954;28;20489;-74
2022/08/14 04:16:16;;;;;;;4.68;2.88;;;16.00;76.80;;;15.53;60.50;96776.13;4993426;28;20403;-74
2022/08/14 04:18:45;;;;;;;3.53;2.63;;;16.10;76.80;;;15.49;60.31;96776.72;4993138;28;20430;-74
2022/08/14 04:21:13;;;;;;;4.35;2.55;;;16.20;76.60;;;15.64;59.73;96775.66;4993385;28;20407;-74
2022/08/14 04:23:39;;;;;;;3.57;2.50;;;16.20;76.40;;;15.40;60.77;96778.50;4992882;28;20490;-74
2022/08/14 04:26:09;;;;;;;3.00;2.70;;;16.10;76.50;;;15.42;60.51;96772.84;4993179;28;20987;-74
2022/08/14 04:28:37;;;;;;;6.47;2.85;;;16.10;76.80;;;15.44;60.60;96771.50;4993086;28;20453;-74
2022/08/14 04:31:05;;;;;;;5.63;2.90;;;16.10;76.90;;;15.63;60.30;96773.31;4993130;28;20861;-74
2022/08/14 04:33:31;;;;;;;3.33;2.63;;;16.20;76.90;;;15.78;59.87;96770.31;4992556;28;20407;-74
2022/08/14 04:35:57;;;;;;;5.22;3.22;;;16.30;76.10;;;15.51;60.67;96776.41;4993075;28;20402;-74
2022/08/14 04:43:54;;;;;;;4.68;2.67;;;16.20;77.10;;;15.74;60.18;96766.66;4992519;28;20406;-74
2022/08/14 04:46:23;;;;;;;3.67;2.67;;;16.30;76.90;;;15.79;60.41;96769.19;4992924;28;20772;-74
2022/08/14 04:48:49;;;;;;;3.58;2.70;;;16.30;77.10;;;15.75;60.27;96766.34;4992732;28;20402;-74
2022/08/14 04:51:19;;;;;;;4.47;2.75;;;16.40;77.10;;;15.80;61.16;96774.25;4992622;28;20422;-74
2022/08/14 04:53:47;;;;;;;4.78;2.80;;;16.40;77.50;;;15.94;60.22;96782.22;4992210;28;20990;-74
2022/08/14 04:56:15;;;;;;;4.40;2.80;;;16.50;77.20;;;16.10;59.79;96772.00;4992570;28;20438;-74
2022/08/14 04:58:42;;;;;;;4.43;2.88;;;16.70;76.80;;;15.98;60.24;96777.09;4992436;28;20402;-74
2022/08/14 05:01:10;;;;;;;6.80;2.95;;;16.60;76.50;;;16.11;59.90;96778.94;4992585;28;20399;-74
2022/08/14 05:03:38;;;;;;;5.05;2.75;;;16.70;77.00;;;16.06;60.23;96774.50;4991996;28;20398;-74
2022/08/14 05:06:07;;;;;;;5.57;2.70;;;16.70;77.00;;;16.18;60.55;96784.66;4992431;28;20508;-74
2022/08/14 05:08:34;;;;;;;8.80;3.00;;;16.80;77.40;;;16.18;60.56;96780.09;4992355;28;20407;-74
2022/08/14 05:11:03;;;;;;;5.90;2.63;;;16.80;77.40;;;16.25;60.86;96779.69;4974808;28;20437;-74
2022/08/14 05:13:30;;;;;;;8.77;2.80;;;16.80;77.80;;;16.34;61.29;96780.53;4991843;28;20952;-74
2022/08/14 05:15:58;;;;;;;6.87;3.13;;;16.90;78.00;;;16.45;61.25;96784.56;4991473;28;20406;-74
2022/08/14 05:18:27;;;;;;;6.97;2.90;;;17.00;78.10;;;16.53;61.98;96789.19;4992159;28;20808;-74
2022/08/14 05:20:56;;;;;;;6.32;2.83;;;17.20;79.00;;;16.69;62.78;96783.50;4992076;28;20399;-74
2022/08/14 05:23:25;;;;;;;9.52;2.80;;;17.30;80.00;;;16.75;62.38;96780.41;4991723;28;20768;-74
2022/08/14 05:25:58;;;;;;;4.77;2.97;;;17.40;79.90;;;16.82;62.73;96777.31;4992042;28;20494;-74
2022/08/14 05:28:27;;;;;;;9.57;3.28;;;17.40;79.70;;;16.94;61.85;96782.88;4992095;28;20399;-74
2022/08/14 05:30:55;;;;;;;5.38;3.03;;;17.50;80.20;;;16.98;61.02;96781.19;4991996;28;20741;-74
2022/08/14 05:33:25;;;;;;;4.72;3.08;;;17.50;78.40;;;17.02;61.05;96776.78;4991481;28;20880;-74
2022/08/14 05:35:59;;;;;;;5.60;3.20;;;17.60;78.30;;;17.11;60.16;96779.50;4991907;28;20939;-74
2022/08/14 05:38:28;;;;;;;5.30;3.30;;;17.70;77.50;;;17.12;61.91;96770.38;4991842;28;20414;-74
2022/08/14 05:40:56;;;;;;;3.80;2.90;;;17.70;79.00;;;17.13;60.97;96762.06;4991631;28;20421;-74
2022/08/14 05:43:22;;;;;;;6.07;3.20;;;17.70;78.50;;;17.22;61.77;96770.09;4991337;28;20474;-74
2022/08/14 05:45:48;;;;;;;3.35;2.90;;;17.80;79.20;;;17.29;61.39;96759.75;4991750;28;20407;-74
2022/08/14 05:48:17;;;;;;;3.88;2.80;;;17.90;78.90;;;17.39;60.92;96759.47;4991724;28;20406;-74
2022/08/14 05:50:44;;;;;;;5.13;2.92;;;18.00;78.50;;;17.42;60.09;96759.66;4990210;28;20410;-74
2022/08/14 05:53:11;;;;;;;4.50;2.80;;;18.00;77.80;;;17.55;61.83;96757.16;4991252;28;20402;-74
2022/08/14 05:55:37;;;;;;;5.32;2.88;;;18.10;79.40;;;17.63;60.94;96759.91;4973961;28;20986;-74
2022/08/14 05:58:06;;;;;;;3.15;2.63;;;18.20;78.70;;;17.74;60.69;96773.78;4991456;28;20410;-75
2022/08/14 06:00:35;;;;;;;3.35;2.70;;;18.30;78.30;;;17.82;60.54;96773.00;4991351;28;20402;-74
2022/08/14 06:03:04;;;;;;;3.83;2.80;;;18.40;78.50;;;17.87;59.34;96767.50;4991065;28;20398;-74
2022/08/14 06:05:30;;;;;;;4.40;2.80;;;18.50;77.10;;;18.01;57.92;96765.47;4991377;28;20489;-74
2022/08/14 06:07:57;;;;;;;5.78;2.88;;;18.60;75.40;;;18.12;57.34;96769.41;4991540;28;20413;-74
2022/08/14 06:10:25;;;;;;;3.85;2.50;;;18.70;74.50;;;18.26;53.89;96771.19;4991223;28;20485;-74
2022/08/14 06:12:51;;;;;;;5.18;2.53;;;18.90;71.00;;;18.34;55.06;96770.38;4990776;28;20418;-74
2022/08/14 06:15:17;;;;;;;3.60;2.50;;;18.90;71.20;;;18.47;52.70;96770.22;4991151;28;20485;-74
2022/08/14 06:17:45;;;;;;;4.37;2.67;;;19.10;69.30;;;18.88;48.97;96758.19;4991155;28;20495;-74
2022/08/14 06:20:12;;;;;;;4.97;2.67;;;19.30;65.50;;;19.02;48.50;96761.47;4991091;28;20406;-74
2022/08/14 06:22:39;;;;;;;3.00;2.03;;;19.50;64.80;;;19.09;48.89;96761.00;4991052;28;20482;-74
2022/08/14 06:25:07;;;;;;;2.85;2.58;;;19.60;64.70;;;19.22;47.61;96760.78;4990912;28;20611;-74
2022/08/14 06:27:36;;;;;;;6.68;2.63;;;19.80;63.20;;;19.26;48.03;96750.19;4990814;28;20501;-74
2022/08/14 06:30:05;;;;;;;3.80;2.47;;;19.80;63.60;;;19.25;47.36;96740.53;4991005;28;20501;-74
2022/08/14 06:32:31;;;;;;;7.07;2.75;;;19.90;62.50;;;19.24;48.56;96739.78;4990711;28;20426;-74
2022/08/14 06:34:57;;;;;;;5.68;2.75;;;19.90;63.80;;;19.30;47.41;96735.03;4990616;28;20464;-74
2022/08/14 06:37:22;;;;;;;3.25;2.63;;;19.90;62.80;;;19.30;49.59;96735.81;4991047;28;20406;-74
2022/08/14 06:39:48;;;;;;;5.80;3.10;;;19.90;64.90;;;19.34;51.05;96735.94;4990778;28;20406;-74
2022/08/14 06:42:14;;;;;;;7.38;2.97;;;19.90;66.30;;;19.37;50.57;96729.94;4990943;28;20414;-75
2022/08/14 06:44:42;;;;;;;6.60;2.83;;;19.90;66.20;;;19.40;51.00;96726.59;4990543;28;20443;-74
2022/08/14 06:47:08;;;;;;;5.88;3.13;;;20.00;66.50;;;19.45;50.21;96721.06;4990930;28;20411;-74
2022/08/14 06:49:34;;;;;;;8.68;3.03;;;20.00;65.10;;;19.51;50.21;96714.41;4990831;28;20413;-74
2022/08/14 06:52:00;;;;;;;5.37;2.87;;;20.10;65.80;;;19.55;50.15;96714.53;4973426;28;20418;-74
2022/08/14 06:54:26;;;;;;;8.20;2.73;;;20.10;65.60;;;19.64;49.42;96716.06;4990230;28;20780;-74
2022/08/14 06:56:51;;;;;;;3.43;2.40;;;20.20;65.40;;;19.68;47.84;96708.94;4990824;28;20407;-74
2022/08/14 06:59:17;;;;;;;8.07;2.90;;;20.30;63.20;;;19.84;47.39;96717.22;4990737;28;20509;-75
2022/08/14 07:07:14;;;;;;;3.83;2.47;;;20.70;60.00;;;20.40;44.48;96707.78;4990803;28;20401;-75
2022/08/14 07:09:40;;;;;;;4.40;2.40;;;20.90;59.60;;;20.44;44.82;96703.31;4990653;28;20796;-74
2022/08/14 07:12:08;;;;;;;3.28;2.35;;;21.00;59.70;;;20.54;44.04;96687.88;4990607;28;20423;-74
2022/08/14 07:14:34;;;;;;;4.20;2.40;;;21.10;59.30;;;20.55;44.67;96692.13;4990221;28;20406;-75
2022/08/14 07:17:01;;;;;;;5.93;2.50;;;21.10;59.30;;;20.60;44.49;96691.94;4990760;28;20403;-75
2022/08/14 07:19:27;;;;;;;5.50;2.63;;;21.20;59.20;;;20.61;45.21;96696.19;5007619;23;20468;-82
2022/08/14 07:21:53;;;;;;;3.10;2.10;;;21.20;59.80;;;20.69;44.61;96706.06;5009531;28;20411;-82
2022/08/14 07:24:19;;;;;;;5.35;2.80;;;21.20;59.30;;;20.70;44.65;96703.06;5009274;28;20425;-82
2022/08/14 07:26:45;;;;;;;5.57;2.45;;;21.30;59.30;;;20.86;43.36;96705.88;5010100;28;20821;-83
2022/08/14 07:29:11;;;;;;;4.78;2.10;;;21.30;58.50;;;20.88;43.90;96711.72;5010097;28;20409;-82
2022/08/14 07:31:37;;;;;;;3.73;2.10;;;21.40;58.10;;;21.04;43.38;96709.19;5010167;28;20515;-82
2022/08/14 07:34:04;;;;;;;5.13;2.27;;;21.50;58.20;;;21.24;41.96;96708.31;5009653;28;20401;-82
2022/08/14 07:36:30;;;;;;;5.68;2.30;;;21.70;56.80;;;21.25;42.58;96712.59;5010094;28;20405;-83
2022/08/14 07:38:57;;;;;;;4.53;2.50;;;21.80;56.80;;;21.33;42.39;96714.38;5012160;28;20422;-82
2022/08/14 07:41:23;;;;;;;2.92;2.17;;;21.90;56.60;;;21.44;40.99;96718.19;5013656;28;20405;-83
2022/08/14 07:43:49;;;;;;;5.88;2.20;;;22.00;55.80;;;21.42;41.78;96719.66;5013030;28;20909;-83
2022/08/14 07:46:15;;;;;;;4.22;2.30;;;22.00;56.30;;;21.48;41.93;96716.41;5013559;28;20420;-83
2022/08/14 07:48:42;;;;;;;3.28;2.22;;;22.00;56.80;;;21.48;41.74;96719.09;5013546;28;20401;-83
2022/08/14 07:51:10;;;;;;;4.25;2.40;;;22.00;56.20;;;21.60;41.98;96712.91;5013180;28;20416;-83
2022/08/14 07:53:36;;;;;;;6.60;2.22;;;22.10;56.50;;;21.64;41.86;96716.50;5012889;28;20401;-83
2022/08/14 07:56:02;;;;;;;4.78;2.28;;;22.20;56.30;;;21.67;41.25;96715.81;5013247;28;20508;-83
2022/08/14 07:58:28;;;;;;;3.28;2.33;;;22.20;55.70;;;21.77;42.36;96715.34;5013320;28;20403;-82
2022/08/14 08:00:55;;;;;;;3.60;2.30;;;22.30;57.00;;;21.90;41.46;96708.03;5013135;28;20405;-83
2022/08/14 08:03:24;;;;;;;2.58;2.28;;;22.40;56.40;;;21.99;41.21;96711.41;5012787;28;20433;-83
2022/08/14 08:05:50;;;;;;;8.00;2.40;;;22.50;55.80;;;22.07;41.14;96715.88;5013170;28;20405;-83
2022/08/14 08:08:19;;;;;;;4.07;2.15;;;22.60;55.60;;;22.16;40.73;96707.66;5013219;28;20881;-83
2022/08/14 08:10:46;;;;;;;3.15;2.40;;;22.70;55.30;;;22.24;41.04;96710.22;5012976;28;20874;-83
2022/08/14 08:13:14;;;;;;;5.65;2.50;;;22.70;55.20;;;22.34;40.54;96703.53;5012561;28;20425;-83
2022/08/14 08:15:44;;;;;;;4.53;2.63;;;22.80;55.10;;;22.45;40.81;96711.94;5012889;28;20906;-83
2022/08/14 08:18:12;;;;;;;4.97;2.60;;;23.00;55.40;;;22.64;40.27;96706.66;5013011;28;20491;-83
2022/08/14 08:20:41;;;;;;;7.80;2.50;;;23.10;54.80;;;22.80;39.38;96704.03;5012675;28;20451;-83
2022/08/14 08:23:08;;;;;;;2.97;2.35;;;23.30;53.90;;;22.87;38.90;96707.69;5012347;28;20420;-83
2022/08/14 08:25:41;;;;;;;4.35;2.28;;;23.40;53.40;;;23.08;38.34;96705.53;5012728;28;20412;-83
2022/08/14 08:28:11;;;;;;;4.15;2.00;;;23.60;52.90;;;23.14;38.18;96706.84;5012753;28;20961;-83
2022/08/14 08:30:39;;;;;;;5.25;2.38;;;23.70;52.60;;;23.32;37.66;96707.25;5012613;28;20866;-83
2022/08/14 08:33:06;;;;;;;6.65;2.30;;;23.70;52.20;;;23.42;37.33;96697.84;5012093;28;20416;-83
2022/08/14 08:35:35;;;;;;;3.85;2.03;;;23.90;52.00;;;23.46;38.07;96688.69;5012509;28;20405;-83
2022/08/14 08:38:04;;;;;;;4.83;2.17;;;24.00;52.10;;;23.55;36.21;96696.63;5012511;28;20902;-84
2022/08/14 08:40:34;;;;;;;3.58;2.00;;;24.10;50.50;;;23.66;36.96;96703.06;5012435;28;20412;-83
2022/08/14 08:43:05;;;;;;;3.25;2.13;;;24.20;51.10;;;23.80;36.69;96710.72;5012221;28;20435;-83
2022/08/14 08:45:33;;;;;;;3.33;1.80;;;24.20;50.60;;;23.93;36.32;96709.44;5012457;28;20459;-84
2022/08/14 08:48:00;;;;;;;4.22;2.03;;;24.40;50.70;;;24.07;35.81;96714.38;5012281;28;20495;-84
2022/08/14 08:50:30;;;;;;;4.13;2.00;;;24.50;50.10;;;24.19;35.36;96698.81;5012256;28;20535;-84
2022/08/14 08:53:00;;;;;;;2.70;2.00;;;24.60;49.70;;;24.48;33.52;96704.81;5011853;28;20424;-84
2022/08/14 08:55:32;;;;;;;3.80;2.07;;;24.90;47.70;;;24.61;33.77;96695.38;5012057;28;20420;-83
2022/08/14 08:58:04;;;;;;;4.20;1.80;;;25.00;47.50;;;24.68;32.88;96692.81;5012204;28;20439;-84
2022/08/14 09:00:34;;;;;;;4.95;2.10;;;25.20;47.30;;;24.80;32.57;96700.00;5011922;28;20484;-84
2022/08/14 09:03:05;;;;;;;4.30;2.00;;;25.30;46.60;;;24.82;32.10;96684.94;5011687;28;20413;-84
2022/08/14 09:05:33;;;;;;;2.80;1.98;;;25.30;45.80;;;24.95;31.74;96670.13;5011828;28;20432;-84
2022/08/14 09:08:11;;;;;;;5.60;2.10;;;25.40;45.90;;;25.05;32.35;96668.72;5012054;28;20499;-84
2022/08/14 09:10:37;;;;;;;4.22;2.15;;;25.50;46.30;;;25.11;32.04;96680.06;5011828;28;20401;-85
2022/08/14 09:13:05;;;;;;;5.35;2.10;;;25.60;45.40;;;25.21;32.37;96672.09;5011398;28;20443;-84
2022/08/14 09:15:31;;;;;;;3.85;2.17;;;25.70;46.20;;;25.34;31.62;96675.38;5011760;28;20405;-85
2022/08/14 09:17:58;;;;;;;3.80;2.00;;;25.80;45.50;;;25.41;31.84;96664.66;5011724;28;20964;-85
2022/08/14 09:20:24;;;;;;;3.22;2.30;;;25.90;45.70;;;25.54;31.31;96667.94;5011584;28;20408;-84
2022/08/14 09:22:51;;;;;;;4.35;2.10;;;26.00;45.00;;;25.61;32.01;96670.78;5011404;28;20915;-84
2022/08/14 09:25:18;;;;;;;3.70;2.30;;;26.00;45.40;;;25.67;32.27;96674.72;5011646;28;20404;-85
2022/08/14 09:27:44;;;;;;;5.13;2.15;;;26.10;46.20;;;25.81;31.27;96667.56;5011739;28;20408;-85
2022/08/14 09:30:11;;;;;;;4.93;1.90;;;26.30;45.40;;;25.94;31.92;96670.84;5011509;28;20409;-85
2022/08/14 09:33:02;;;;;;;5.55;2.53;;;26.40;45.90;;;25.96;31.67;96678.59;5011558;28;20417;-85
2022/08/14 09:35:41;;;;;;;2.92;2.13;;;26.40;45.40;;;26.08;30.75;96681.09;5011398;28;20885;-85
2022/08/14 09:38:21;;;;;;;8.45;2.38;;;26.50;44.60;;;26.15;30.80;96678.47;5011594;28;20505;-86
2022/08/14 09:40:58;;;;;;;3.17;2.13;;;26.60;44.50;;;26.34;29.95;96681.03;5011446;28;20404;-85
2022/08/14 09:43:41;;;;;;;3.22;2.22;;;26.70;44.00;;;26.37;31.21;96666.75;4993365;28;20423;-86
2022/08/14 09:46:09;;;;;;;5.53;2.13;;;26.80;44.70;;;26.53;31.06;96666.53;5011350;28;20404;-86
2022/08/14 09:48:36;;;;;;;4.32;2.15;;;26.90;45.00;;;26.62;31.25;96664.28;5011342;28;20400;-86
2022/08/14 09:51:05;;;;;;;4.10;2.25;;;27.00;45.10;;;26.67;30.36;96665.91;5011097;28;20409;-86
2022/08/14 09:53:40;;;;;;;6.50;2.42;;;27.10;43.60;;;26.84;29.48;96660.63;5010718;28;20487;-87
2022/08/14 09:56:07;;;;;;;2.60;2.10;;;27.20;43.20;;;26.81;30.15;96661.38;5011221;28;20416;-85
2022/08/14 09:58:39;;;;;;;3.83;2.30;;;27.20;44.00;;;26.88;29.70;96642.44;5011242;28;20462;-86
2022/08/14 10:01:13;;;;;;;3.45;2.22;;;27.30;43.50;;;26.87;30.33;96635.44;5010666;28;20400;-86
2022/08/14 10:03:49;;;;;;;4.72;2.30;;;27.30;43.80;;;26.83;29.78;96639.28;5010572;28;20413;-87
2022/08/14 10:06:18;;;;;;;6.50;2.67;;;27.30;43.00;;;27.02;29.16;96627.44;5011144;28;20404;-86
2022/08/14 10:08:48;;;;;;;4.95;2.20;;;27.40;43.00;;;27.21;30.28;96628.00;5011026;28;20401;-86
2022/08/14 10:11:18;;;;;;;5.88;2.45;;;27.60;43.90;;;27.46;29.80;96630.84;5010785;28;20495;-87
2022/08/14 10:13:46;;;;;;;4.40;2.25;;;27.90;43.70;;;27.90;28.91;96638.09;5010434;28;20450;-87
2022/08/14 10:16:14;;;;;;;4.38;2.20;;;28.40;43.00;;;28.07;26.95;96623.81;5010891;28;20404;-87
2022/08/14 10:18:40;;;;;;;3.53;2.50;;;28.70;39.70;;;28.44;26.61;96616.16;5010869;28;20400;-86
2022/08/14 10:21:15;;;;;;;6.25;2.47;;;29.00;40.10;;;28.98;27.35;96614.31;5010668;28;20404;-86
2022/08/14 10:23:44;;;;;;;5.07;2.30;;;29.50;41.00;;;29.24;26.02;96604.97;5010337;28;20451;-86
2022/08/14 10:26:18;;;;;;;4.60;2.27;;;29.70;39.10;;;29.45;26.21;96594.03;5010834;28;20408;-86
2022/08/14 10:28:48;;;;;;;4.25;2.60;;;29.90;39.20;;;29.61;25.69;96579.97;5010788;28;20393;-87
2022/08/14 10:31:27;;;;;;;4.30;2.50;;;29.90;39.20;;;29.81;25.50;96589.25;5010618;28;20439;-86
2022/08/14 10:34:03;;;;;;;3.10;2.33;;;30.20;38.80;;;29.90;25.04;96586.88;5010221;28;20942;-86
2022/08/14 10:36:32;;;;;;;3.63;2.05;;;30.30;38.80;;;29.99;26.41;96578.28;5010661;28;20415;-86
2022/08/14 10:39:03;;;;;;;5.13;2.20;;;30.30;39.50;;;30.00;25.68;96575.16;5010533;28;20748;-86
2022/08/14 10:41:41;;;;;;;3.58;2.38;;;30.30;38.80;;;30.13;25.11;96572.75;5010704;28;20397;-87